sensor_id;sensor_type;location;lat;lon;timestamp;P1;durP1;ratioP1;P2;durP2;ratioP2
74538;SDS011;66042;51.090;-115.340;2023-08-01T00:00:18;11.50;;;9.20;;
74538;SDS011;66042;51.090;-115.340;2023-08-01T00:02:45;12.80;;;9.90;;
74538;SDS011;66042;51.090;-115.340;2023-08-01T00:05:12;11.90;;;10.10;;
74538;SDS011;66042;51.090;-115.340;2023-08-01T00:07:38;11.50;;;10.30;;
74538;SDS011;66042;51.090;-115.340;2023-08-01T00:10:06;11.70;;;10.00;;
74538;SDS011;66042;51.090;-115.340;2023-08-01T00:12:33;12.10;;;9.20;;
74538;SDS011;66042;51.090;-115.340;2023-08-01T00:15:00;11.70;;;9.50;;
74538;SDS011;66042;51.090;-115.340;2023-08-01T00:17:28;11.70;;;8.20;;
74538;SDS011;66042;51.090;-115.340;2023-08-01T00:19:55;10.50;;;8.10;;
74538;SDS011;66042;51.090;-115.340;2023-08-01T00:22:22;12.20;;;9.00;;
74538;SDS011;66042;51.090;-115.340;2023-08-01T00:24:49;11.10;;;8.70;;
74538;SDS011;66042;51.090;-115.340;2023-08-01T00:27:16;11.50;;;8.80;;
74538;SDS011;66042;51.090;-115.340;2023-08-01T00:29:44;11.30;;;8.40;;
74538;SDS011;66042;51.090;-115.340;2023-08-01T00:32:11;13.10;;;9.50;;
74538;SDS011;66042;51.090;-115.340;2023-08-01T00:34:38;10.50;;;8.40;;
74538;SDS011;66042;51.090;-115.340;2023-08-01T00:37:05;10.50;;;8.10;;
74538;SDS011;66042;51.090;-115.340;2023-08-01T00:39:32;10.90;;;7.90;;
74538;SDS011;66042;51.090;-115.340;2023-08-01T00:41:59;10.60;;;8.30;;
74538;SDS011;66042;51.090;-115.340;2023-08-01T00:44:26;11.50;;;8.50;;
74538;SDS011;66042;51.090;-115.340;2023-08-01T00:46:53;10.80;;;7.90;;
74538;SDS011;66042;51.090;-115.340;2023-08-01T00:49:20;11.50;;;8.80;;
74538;SDS011;66042;51.090;-115.340;2023-08-01T00:51:47;10.60;;;7.90;;
74538;SDS011;66042;51.090;-115.340;2023-08-01T00:54:14;10.30;;;7.80;;
74538;SDS011;66042;51.090;-115.340;2023-08-01T00:56:42;10.90;;;7.80;;
74538;SDS011;66042;51.090;-115.340;2023-08-01T00:59:11;11.50;;;7.70;;
74538;SDS011;66042;51.090;-115.340;2023-08-01T01:01:39;10.90;;;7.80;;
74538;SDS011;66042;51.090;-115.340;2023-08-01T01:04:05;12.30;;;7.90;;
74538;SDS011;66042;51.090;-115.340;2023-08-01T01:06:40;13.00;;;7.70;;
74538;SDS011;66042;51.090;-115.340;2023-08-01T01:09:17;10.00;;;6.90;;
74538;SDS011;66042;51.090;-115.340;2023-08-01T01:11:45;10.80;;;7.40;;
74538;SDS011;66042;51.090;-115.340;2023-08-01T01:14:13;10.30;;;7.30;;
74538;SDS011;66042;51.090;-115.340;2023-08-01T01:16:40;11.90;;;8.40;;
74538;SDS011;66042;51.090;-115.340;2023-08-01T01:19:09;13.30;;;9.60;;
74538;SDS011;66042;51.090;-115.340;2023-08-01T01:21:38;13.00;;;8.10;;
74538;SDS011;66042;51.090;-115.340;2023-08-01T01:24:08;10.50;;;7.60;;
74538;SDS011;66042;51.090;-115.340;2023-08-01T01:26:37;9.60;;;7.50;;
74538;SDS011;66042;51.090;-115.340;2023-08-01T01:29:06;9.00;;;6.80;;
74538;SDS011;66042;51.090;-115.340;2023-08-01T01:31:35;9.30;;;6.40;;
74538;SDS011;66042;51.090;-115.340;2023-08-01T01:34:03;9.80;;;6.80;;
74538;SDS011;66042;51.090;-115.340;2023-08-01T01:36:30;11.30;;;7.30;;
74538;SDS011;66042;51.090;-115.340;2023-08-01T01:38:57;10.40;;;6.60;;
74538;SDS011;66042;51.090;-115.340;2023-08-01T01:41:24;8.80;;;6.40;;
74538;SDS011;66042;51.090;-115.340;2023-08-01T01:43:51;10.20;;;6.20;;
74538;SDS011;66042;51.090;-115.340;2023-08-01T01:46:18;9.20;;;6.20;;
74538;SDS011;66042;51.090;-115.340;2023-08-01T01:48:45;9.20;;;6.40;;
74538;SDS011;66042;51.090;-115.340;2023-08-01T01:51:13;8.60;;;6.30;;
74538;SDS011;66042;51.090;-115.340;2023-08-01T01:53:41;10.20;;;6.20;;
74538;SDS011;66042;51.090;-115.340;2023-08-01T01:56:08;9.30;;;6.20;;
74538;SDS011;66042;51.090;-115.340;2023-08-01T01:58:35;8.20;;;5.70;;
74538;SDS011;66042;51.090;-115.340;2023-08-01T02:01:02;9.00;;;6.60;;
74538;SDS011;66042;51.090;-115.340;2023-08-01T02:03:29;10.00;;;5.90;;
74538;SDS011;66042;51.090;-115.340;2023-08-01T02:05:56;9.40;;;6.70;;
74538;SDS011;66042;51.090;-115.340;2023-08-01T02:08:23;8.50;;;5.80;;
74538;SDS011;66042;51.090;-115.340;2023-08-01T02:10:50;10.00;;;5.90;;
74538;SDS011;66042;51.090;-115.340;2023-08-01T02:13:18;9.00;;;5.60;;
74538;SDS011;66042;51.090;-115.340;2023-08-01T02:15:44;10.10;;;6.00;;
74538;SDS011;66042;51.090;-115.340;2023-08-01T02:18:11;8.80;;;6.00;;
74538;SDS011;66042;51.090;-115.340;2023-08-01T02:20:38;9.30;;;5.90;;
74538;SDS011;66042;51.090;-115.340;2023-08-01T02:23:05;10.50;;;5.50;;
74538;SDS011;66042;51.090;-115.340;2023-08-01T02:25:32;9.10;;;5.80;;
74538;SDS011;66042;51.090;-115.340;2023-08-01T02:28:04;8.90;;;5.60;;
74538;SDS011;66042;51.090;-115.340;2023-08-01T02:30:32;9.90;;;5.50;;
74538;SDS011;66042;51.090;-115.340;2023-08-01T02:33:00;10.90;;;5.80;;
74538;SDS011;66042;51.090;-115.340;2023-08-01T02:35:28;9.00;;;5.60;;
74538;SDS011;66042;51.090;-115.340;2023-08-01T02:37:55;12.30;;;5.80;;
74538;SDS011;66042;51.090;-115.340;2023-08-01T02:40:22;12.40;;;5.90;;
74538;SDS011;66042;51.090;-115.340;2023-08-01T02:42:49;10.50;;;6.00;;
74538;SDS011;66042;51.090;-115.340;2023-08-01T02:45:16;10.60;;;6.20;;
74538;SDS011;66042;51.090;-115.340;2023-08-01T02:47:45;12.70;;;5.60;;
74538;SDS011;66042;51.090;-115.340;2023-08-01T02:50:12;9.80;;;5.80;;
74538;SDS011;66042;51.090;-115.340;2023-08-01T02:52:39;14.80;;;6.60;;
74538;SDS011;66042;51.090;-115.340;2023-08-01T02:55:06;9.30;;;6.10;;
74538;SDS011;66042;51.090;-115.340;2023-08-01T02:57:33;10.30;;;5.40;;
74538;SDS011;66042;51.090;-115.340;2023-08-01T02:59:59;10.00;;;5.80;;
74538;SDS011;66042;51.090;-115.340;2023-08-01T03:02:26;10.30;;;5.50;;
74538;SDS011;66042;51.090;-115.340;2023-08-01T03:04:53;11.30;;;5.80;;
74538;SDS011;66042;51.090;-115.340;2023-08-01T03:07:20;9.80;;;5.10;;
74538;SDS011;66042;51.090;-115.340;2023-08-01T03:09:47;10.20;;;5.80;;
74538;SDS011;66042;51.090;-115.340;2023-08-01T03:12:15;9.80;;;5.10;;
74538;SDS011;66042;51.090;-115.340;2023-08-01T03:14:42;8.50;;;5.70;;
74538;SDS011;66042;51.090;-115.340;2023-08-01T03:17:10;8.80;;;5.20;;
74538;SDS011;66042;51.090;-115.340;2023-08-01T03:19:38;10.40;;;5.80;;
74538;SDS011;66042;51.090;-115.340;2023-08-01T03:22:05;7.70;;;4.40;;
74538;SDS011;66042;51.090;-115.340;2023-08-01T03:24:33;7.00;;;4.60;;
74538;SDS011;66042;51.090;-115.340;2023-08-01T03:27:00;9.90;;;4.80;;
74538;SDS011;66042;51.090;-115.340;2023-08-01T03:29:27;11.70;;;5.50;;
74538;SDS011;66042;51.090;-115.340;2023-08-01T03:31:54;11.70;;;5.40;;
74538;SDS011;66042;51.090;-115.340;2023-08-01T03:34:21;9.70;;;5.10;;
74538;SDS011;66042;51.090;-115.340;2023-08-01T03:36:48;8.60;;;5.10;;
74538;SDS011;66042;51.090;-115.340;2023-08-01T03:39:15;8.40;;;4.90;;
74538;SDS011;66042;51.090;-115.340;2023-08-01T03:41:43;9.30;;;5.10;;
74538;SDS011;66042;51.090;-115.340;2023-08-01T03:44:10;10.10;;;5.00;;
74538;SDS011;66042;51.090;-115.340;2023-08-01T03:46:36;8.90;;;4.60;;
74538;SDS011;66042;51.090;-115.340;2023-08-01T03:49:03;9.20;;;5.00;;
74538;SDS011;66042;51.090;-115.340;2023-08-01T03:51:29;9.70;;;4.80;;
74538;SDS011;66042;51.090;-115.340;2023-08-01T03:53:56;8.90;;;4.90;;
74538;SDS011;66042;51.090;-115.340;2023-08-01T03:56:22;11.30;;;5.10;;
74538;SDS011;66042;51.090;-115.340;2023-08-01T03:58:49;7.80;;;4.90;;
74538;SDS011;66042;51.090;-115.340;2023-08-01T04:01:16;14.30;;;7.70;;
74538;SDS011;66042;51.090;-115.340;2023-08-01T04:03:42;7.90;;;5.50;;
74538;SDS011;66042;51.090;-115.340;2023-08-01T04:06:09;8.00;;;4.20;;
74538;SDS011;66042;51.090;-115.340;2023-08-01T04:08:41;9.80;;;4.20;;
74538;SDS011;66042;51.090;-115.340;2023-08-01T04:11:08;8.10;;;4.50;;
74538;SDS011;66042;51.090;-115.340;2023-08-01T04:13:34;10.00;;;5.70;;
74538;SDS011;66042;51.090;-115.340;2023-08-01T04:16:01;8.60;;;4.60;;
74538;SDS011;66042;51.090;-115.340;2023-08-01T04:18:27;10.00;;;5.50;;
74538;SDS011;66042;51.090;-115.340;2023-08-01T04:20:54;10.40;;;5.50;;
74538;SDS011;66042;51.090;-115.340;2023-08-01T04:23:21;9.40;;;5.50;;
74538;SDS011;66042;51.090;-115.340;2023-08-01T04:25:47;8.70;;;5.10;;
74538;SDS011;66042;51.090;-115.340;2023-08-01T04:28:14;11.70;;;5.40;;
74538;SDS011;66042;51.090;-115.340;2023-08-01T04:30:41;12.10;;;5.40;;
74538;SDS011;66042;51.090;-115.340;2023-08-01T04:33:08;11.50;;;6.70;;
74538;SDS011;66042;51.090;-115.340;2023-08-01T04:35:35;12.90;;;7.20;;
74538;SDS011;66042;51.090;-115.340;2023-08-01T04:38:02;12.40;;;6.60;;
74538;SDS011;66042;51.090;-115.340;2023-08-01T04:40:29;9.80;;;5.20;;
74538;SDS011;66042;51.090;-115.340;2023-08-01T04:42:56;7.70;;;5.20;;
74538;SDS011;66042;51.090;-115.340;2023-08-01T04:45:23;9.50;;;5.20;;
74538;SDS011;66042;51.090;-115.340;2023-08-01T04:47:50;9.60;;;5.70;;
74538;SDS011;66042;51.090;-115.340;2023-08-01T04:50:17;10.40;;;5.70;;
74538;SDS011;66042;51.090;-115.340;2023-08-01T04:52:43;9.00;;;5.80;;
74538;SDS011;66042;51.090;-115.340;2023-08-01T04:55:10;11.60;;;6.40;;
74538;SDS011;66042;51.090;-115.340;2023-08-01T04:57:37;9.10;;;6.30;;
74538;SDS011;66042;51.090;-115.340;2023-08-01T05:00:04;12.30;;;5.70;;
74538;SDS011;66042;51.090;-115.340;2023-08-01T05:02:31;10.80;;;6.30;;
74538;SDS011;66042;51.090;-115.340;2023-08-01T05:04:58;13.30;;;6.40;;
74538;SDS011;66042;51.090;-115.340;2023-08-01T05:07:25;10.70;;;6.70;;
74538;SDS011;66042;51.090;-115.340;2023-08-01T05:09:52;9.40;;;6.30;;
74538;SDS011;66042;51.090;-115.340;2023-08-01T05:12:19;10.00;;;6.50;;
74538;SDS011;66042;51.090;-115.340;2023-08-01T05:14:46;10.30;;;6.30;;
74538;SDS011;66042;51.090;-115.340;2023-08-01T05:17:13;10.90;;;6.40;;
74538;SDS011;66042;51.090;-115.340;2023-08-01T05:19:40;10.70;;;6.70;;
74538;SDS011;66042;51.090;-115.340;2023-08-01T05:22:07;12.30;;;7.00;;
74538;SDS011;66042;51.090;-115.340;2023-08-01T05:24:34;12.70;;;7.00;;
74538;SDS011;66042;51.090;-115.340;2023-08-01T05:27:01;11.10;;;7.70;;
74538;SDS011;66042;51.090;-115.340;2023-08-01T05:29:28;13.70;;;6.70;;
74538;SDS011;66042;51.090;-115.340;2023-08-01T05:31:55;12.20;;;7.60;;
74538;SDS011;66042;51.090;-115.340;2023-08-01T05:34:22;10.40;;;7.30;;
74538;SDS011;66042;51.090;-115.340;2023-08-01T05:36:49;11.10;;;7.40;;
74538;SDS011;66042;51.090;-115.340;2023-08-01T05:39:16;10.10;;;6.60;;
74538;SDS011;66042;51.090;-115.340;2023-08-01T05:41:43;12.30;;;6.50;;
74538;SDS011;66042;51.090;-115.340;2023-08-01T05:44:10;10.30;;;7.10;;
74538;SDS011;66042;51.090;-115.340;2023-08-01T05:46:37;10.80;;;6.60;;
74538;SDS011;66042;51.090;-115.340;2023-08-01T05:49:04;11.50;;;6.40;;
74538;SDS011;66042;51.090;-115.340;2023-08-01T05:51:31;9.90;;;6.10;;
74538;SDS011;66042;51.090;-115.340;2023-08-01T05:53:58;12.10;;;6.80;;
74538;SDS011;66042;51.090;-115.340;2023-08-01T05:56:25;9.60;;;6.20;;
74538;SDS011;66042;51.090;-115.340;2023-08-01T05:58:52;10.70;;;6.60;;
74538;SDS011;66042;51.090;-115.340;2023-08-01T06:01:19;11.30;;;7.60;;
74538;SDS011;66042;51.090;-115.340;2023-08-01T06:03:46;11.50;;;7.30;;
74538;SDS011;66042;51.090;-115.340;2023-08-01T06:06:13;12.70;;;7.70;;
74538;SDS011;66042;51.090;-115.340;2023-08-01T06:08:40;11.30;;;7.20;;
74538;SDS011;66042;51.090;-115.340;2023-08-01T06:11:07;12.40;;;8.00;;
74538;SDS011;66042;51.090;-115.340;2023-08-01T06:13:33;12.80;;;7.90;;
74538;SDS011;66042;51.090;-115.340;2023-08-01T06:16:01;11.60;;;8.10;;
74538;SDS011;66042;51.090;-115.340;2023-08-01T06:18:28;11.60;;;8.00;;
74538;SDS011;66042;51.090;-115.340;2023-08-01T06:20:55;16.10;;;9.00;;
74538;SDS011;66042;51.090;-115.340;2023-08-01T06:23:22;13.50;;;8.70;;
74538;SDS011;66042;51.090;-115.340;2023-08-01T06:25:50;14.30;;;8.60;;
74538;SDS011;66042;51.090;-115.340;2023-08-01T06:28:17;12.70;;;8.50;;
74538;SDS011;66042;51.090;-115.340;2023-08-01T06:30:45;12.90;;;9.00;;
74538;SDS011;66042;51.090;-115.340;2023-08-01T06:33:12;13.20;;;8.70;;
74538;SDS011;66042;51.090;-115.340;2023-08-01T06:35:39;15.50;;;8.60;;
74538;SDS011;66042;51.090;-115.340;2023-08-01T06:38:07;11.70;;;8.70;;
74538;SDS011;66042;51.090;-115.340;2023-08-01T06:40:34;16.10;;;9.40;;
74538;SDS011;66042;51.090;-115.340;2023-08-01T06:43:05;13.90;;;8.80;;
74538;SDS011;66042;51.090;-115.340;2023-08-01T06:45:32;13.90;;;8.90;;
74538;SDS011;66042;51.090;-115.340;2023-08-01T06:47:58;11.70;;;7.70;;
74538;SDS011;66042;51.090;-115.340;2023-08-01T06:50:25;13.40;;;8.00;;
74538;SDS011;66042;51.090;-115.340;2023-08-01T06:52:52;13.40;;;8.10;;
74538;SDS011;66042;51.090;-115.340;2023-08-01T06:55:19;10.40;;;6.90;;
74538;SDS011;66042;51.090;-115.340;2023-08-01T06:57:46;10.30;;;6.50;;
74538;SDS011;66042;51.090;-115.340;2023-08-01T07:00:14;12.10;;;7.60;;
74538;SDS011;66042;51.090;-115.340;2023-08-01T07:02:41;14.50;;;7.80;;
74538;SDS011;66042;51.090;-115.340;2023-08-01T07:05:08;11.50;;;7.90;;
74538;SDS011;66042;51.090;-115.340;2023-08-01T07:07:35;13.70;;;7.70;;
74538;SDS011;66042;51.090;-115.340;2023-08-01T07:10:02;10.50;;;7.50;;
74538;SDS011;66042;51.090;-115.340;2023-08-01T07:12:29;12.20;;;8.30;;
74538;SDS011;66042;51.090;-115.340;2023-08-01T07:14:56;11.70;;;6.80;;
74538;SDS011;66042;51.090;-115.340;2023-08-01T07:17:23;11.30;;;7.30;;
74538;SDS011;66042;51.090;-115.340;2023-08-01T07:19:50;14.90;;;8.40;;
74538;SDS011;66042;51.090;-115.340;2023-08-01T07:22:17;10.60;;;7.50;;
74538;SDS011;66042;51.090;-115.340;2023-08-01T07:24:43;10.60;;;7.30;;
74538;SDS011;66042;51.090;-115.340;2023-08-01T07:27:10;12.20;;;7.20;;
74538;SDS011;66042;51.090;-115.340;2023-08-01T07:29:38;11.10;;;7.60;;
74538;SDS011;66042;51.090;-115.340;2023-08-01T07:32:05;13.70;;;7.80;;
74538;SDS011;66042;51.090;-115.340;2023-08-01T07:34:33;12.50;;;7.60;;
74538;SDS011;66042;51.090;-115.340;2023-08-01T07:37:00;15.20;;;8.00;;
74538;SDS011;66042;51.090;-115.340;2023-08-01T07:39:27;10.20;;;7.20;;
74538;SDS011;66042;51.090;-115.340;2023-08-01T07:41:55;11.50;;;7.30;;
74538;SDS011;66042;51.090;-115.340;2023-08-01T07:44:22;10.70;;;6.90;;
74538;SDS011;66042;51.090;-115.340;2023-08-01T07:46:49;12.30;;;7.20;;
74538;SDS011;66042;51.090;-115.340;2023-08-01T07:49:17;12.40;;;8.20;;
74538;SDS011;66042;51.090;-115.340;2023-08-01T07:51:44;12.10;;;6.30;;
74538;SDS011;66042;51.090;-115.340;2023-08-01T07:54:11;12.40;;;7.40;;
74538;SDS011;66042;51.090;-115.340;2023-08-01T07:56:38;10.90;;;7.60;;
74538;SDS011;66042;51.090;-115.340;2023-08-01T07:59:05;10.90;;;7.60;;
74538;SDS011;66042;51.090;-115.340;2023-08-01T08:01:32;13.40;;;7.60;;
74538;SDS011;66042;51.090;-115.340;2023-08-01T08:03:59;11.00;;;7.30;;
74538;SDS011;66042;51.090;-115.340;2023-08-01T08:06:25;11.00;;;6.40;;
74538;SDS011;66042;51.090;-115.340;2023-08-01T08:08:52;11.30;;;6.70;;
74538;SDS011;66042;51.090;-115.340;2023-08-01T08:11:19;9.80;;;6.40;;
74538;SDS011;66042;51.090;-115.340;2023-08-01T08:13:46;10.20;;;6.60;;
74538;SDS011;66042;51.090;-115.340;2023-08-01T08:16:13;11.70;;;6.70;;
74538;SDS011;66042;51.090;-115.340;2023-08-01T08:18:41;8.70;;;6.00;;
74538;SDS011;66042;51.090;-115.340;2023-08-01T08:21:08;9.00;;;6.10;;
74538;SDS011;66042;51.090;-115.340;2023-08-01T08:23:35;9.80;;;5.90;;
74538;SDS011;66042;51.090;-115.340;2023-08-01T08:26:02;10.20;;;6.70;;
74538;SDS011;66042;51.090;-115.340;2023-08-01T08:28:32;9.90;;;6.00;;
74538;SDS011;66042;51.090;-115.340;2023-08-01T08:31:00;10.60;;;5.70;;
74538;SDS011;66042;51.090;-115.340;2023-08-01T08:33:29;9.60;;;6.50;;
74538;SDS011;66042;51.090;-115.340;2023-08-01T08:35:57;9.70;;;6.20;;
74538;SDS011;66042;51.090;-115.340;2023-08-01T08:38:24;12.00;;;6.60;;
74538;SDS011;66042;51.090;-115.340;2023-08-01T08:41:25;9.30;;;6.60;;
74538;SDS011;66042;51.090;-115.340;2023-08-01T08:43:56;12.80;;;6.60;;
74538;SDS011;66042;51.090;-115.340;2023-08-01T08:46:28;10.50;;;6.30;;
74538;SDS011;66042;51.090;-115.340;2023-08-01T08:48:57;10.60;;;6.90;;
74538;SDS011;66042;51.090;-115.340;2023-08-01T08:51:26;11.40;;;7.30;;
74538;SDS011;66042;51.090;-115.340;2023-08-01T08:53:56;11.60;;;6.90;;
74538;SDS011;66042;51.090;-115.340;2023-08-01T08:56:23;10.20;;;6.40;;
74538;SDS011;66042;51.090;-115.340;2023-08-01T08:58:51;13.50;;;6.80;;
74538;SDS011;66042;51.090;-115.340;2023-08-01T09:01:20;12.50;;;6.30;;
74538;SDS011;66042;51.090;-115.340;2023-08-01T09:03:47;12.20;;;6.80;;
74538;SDS011;66042;51.090;-115.340;2023-08-01T09:06:24;10.70;;;6.40;;
74538;SDS011;66042;51.090;-115.340;2023-08-01T09:09:10;11.60;;;7.40;;
74538;SDS011;66042;51.090;-115.340;2023-08-01T09:11:51;12.50;;;6.80;;
74538;SDS011;66042;51.090;-115.340;2023-08-01T09:14:19;11.40;;;6.90;;
74538;SDS011;66042;51.090;-115.340;2023-08-01T09:16:47;11.40;;;5.70;;
74538;SDS011;66042;51.090;-115.340;2023-08-01T09:19:24;9.50;;;6.10;;
74538;SDS011;66042;51.090;-115.340;2023-08-01T09:21:53;9.00;;;6.00;;
74538;SDS011;66042;51.090;-115.340;2023-08-01T09:24:21;12.80;;;6.50;;
74538;SDS011;66042;51.090;-115.340;2023-08-01T09:26:48;10.90;;;6.50;;
74538;SDS011;66042;51.090;-115.340;2023-08-01T09:29:20;11.00;;;6.80;;
74538;SDS011;66042;51.090;-115.340;2023-08-01T09:31:47;9.10;;;6.10;;
74538;SDS011;66042;51.090;-115.340;2023-08-01T09:34:26;10.90;;;6.40;;
74538;SDS011;66042;51.090;-115.340;2023-08-01T09:37:00;9.80;;;6.20;;
74538;SDS011;66042;51.090;-115.340;2023-08-01T09:39:28;11.90;;;6.60;;
74538;SDS011;66042;51.090;-115.340;2023-08-01T09:41:56;11.30;;;6.50;;
74538;SDS011;66042;51.090;-115.340;2023-08-01T09:44:25;10.70;;;6.00;;
74538;SDS011;66042;51.090;-115.340;2023-08-01T09:47:05;9.80;;;6.20;;
74538;SDS011;66042;51.090;-115.340;2023-08-01T09:49:35;10.80;;;6.00;;
74538;SDS011;66042;51.090;-115.340;2023-08-01T09:52:03;9.80;;;6.10;;
74538;SDS011;66042;51.090;-115.340;2023-08-01T09:54:30;9.90;;;6.60;;
74538;SDS011;66042;51.090;-115.340;2023-08-01T09:56:57;12.10;;;6.50;;
74538;SDS011;66042;51.090;-115.340;2023-08-01T09:59:26;10.40;;;6.60;;
74538;SDS011;66042;51.090;-115.340;2023-08-01T10:01:55;11.40;;;6.20;;
74538;SDS011;66042;51.090;-115.340;2023-08-01T10:04:27;10.40;;;6.10;;
74538;SDS011;66042;51.090;-115.340;2023-08-01T10:07:01;9.40;;;6.30;;
74538;SDS011;66042;51.090;-115.340;2023-08-01T10:09:41;13.10;;;6.50;;
74538;SDS011;66042;51.090;-115.340;2023-08-01T10:12:12;10.10;;;6.70;;
74538;SDS011;66042;51.090;-115.340;2023-08-01T10:14:41;8.70;;;6.20;;
74538;SDS011;66042;51.090;-115.340;2023-08-01T10:17:10;11.70;;;7.20;;
74538;SDS011;66042;51.090;-115.340;2023-08-01T10:19:37;9.00;;;6.00;;
74538;SDS011;66042;51.090;-115.340;2023-08-01T10:22:07;9.20;;;5.70;;
74538;SDS011;66042;51.090;-115.340;2023-08-01T10:24:37;9.10;;;6.30;;
74538;SDS011;66042;51.090;-115.340;2023-08-01T10:27:18;9.60;;;5.80;;
74538;SDS011;66042;51.090;-115.340;2023-08-01T10:29:59;9.70;;;6.10;;
74538;SDS011;66042;51.090;-115.340;2023-08-01T10:32:34;9.80;;;6.00;;
74538;SDS011;66042;51.090;-115.340;2023-08-01T10:35:03;10.30;;;5.40;;
74538;SDS011;66042;51.090;-115.340;2023-08-01T10:37:45;8.10;;;5.70;;
74538;SDS011;66042;51.090;-115.340;2023-08-01T10:40:15;7.80;;;5.10;;
74538;SDS011;66042;51.090;-115.340;2023-08-01T10:42:44;9.60;;;5.90;;
74538;SDS011;66042;51.090;-115.340;2023-08-01T10:45:22;8.80;;;5.70;;
74538;SDS011;66042;51.090;-115.340;2023-08-01T10:47:50;10.10;;;6.50;;
74538;SDS011;66042;51.090;-115.340;2023-08-01T10:50:18;9.40;;;6.20;;
74538;SDS011;66042;51.090;-115.340;2023-08-01T10:52:45;8.60;;;5.50;;
74538;SDS011;66042;51.090;-115.340;2023-08-01T10:55:13;8.40;;;6.00;;
74538;SDS011;66042;51.090;-115.340;2023-08-01T10:57:48;9.30;;;6.10;;
74538;SDS011;66042;51.090;-115.340;2023-08-01T11:00:16;11.20;;;6.20;;
74538;SDS011;66042;51.090;-115.340;2023-08-01T11:02:52;9.80;;;5.40;;
74538;SDS011;66042;51.090;-115.340;2023-08-01T11:05:19;9.50;;;5.50;;
74538;SDS011;66042;51.090;-115.340;2023-08-01T11:07:57;9.60;;;6.10;;
74538;SDS011;66042;51.090;-115.340;2023-08-01T11:10:31;10.20;;;5.40;;
74538;SDS011;66042;51.090;-115.340;2023-08-01T11:12:59;9.30;;;5.70;;
74538;SDS011;66042;51.090;-115.340;2023-08-01T11:15:27;11.20;;;6.80;;
74538;SDS011;66042;51.090;-115.340;2023-08-01T11:17:54;12.90;;;5.80;;
74538;SDS011;66042;51.090;-115.340;2023-08-01T11:20:24;11.20;;;5.90;;
74538;SDS011;66042;51.090;-115.340;2023-08-01T11:22:57;9.70;;;5.70;;
74538;SDS011;66042;51.090;-115.340;2023-08-01T11:28:16;9.00;;;5.40;;
74538;SDS011;66042;51.090;-115.340;2023-08-01T11:30:43;10.90;;;6.40;;
74538;SDS011;66042;51.090;-115.340;2023-08-01T11:33:22;10.50;;;6.20;;
74538;SDS011;66042;51.090;-115.340;2023-08-01T11:35:55;10.20;;;5.60;;
74538;SDS011;66042;51.090;-115.340;2023-08-01T11:38:26;8.60;;;5.30;;
74538;SDS011;66042;51.090;-115.340;2023-08-01T11:41:00;11.90;;;6.00;;
74538;SDS011;66042;51.090;-115.340;2023-08-01T11:43:41;9.70;;;5.40;;
74538;SDS011;66042;51.090;-115.340;2023-08-01T11:46:09;8.40;;;5.60;;
74538;SDS011;66042;51.090;-115.340;2023-08-01T11:48:36;10.60;;;6.20;;
74538;SDS011;66042;51.090;-115.340;2023-08-01T11:51:03;11.70;;;5.80;;
74538;SDS011;66042;51.090;-115.340;2023-08-01T11:53:31;8.40;;;5.40;;
74538;SDS011;66042;51.090;-115.340;2023-08-01T11:56:05;9.00;;;5.80;;
74538;SDS011;66042;51.090;-115.340;2023-08-01T11:58:34;9.00;;;5.60;;
74538;SDS011;66042;51.090;-115.340;2023-08-01T12:01:20;9.30;;;5.60;;
74538;SDS011;66042;51.090;-115.340;2023-08-01T12:03:49;9.70;;;5.30;;
74538;SDS011;66042;51.090;-115.340;2023-08-01T12:06:19;9.10;;;5.40;;
74538;SDS011;66042;51.090;-115.340;2023-08-01T12:08:51;9.60;;;5.20;;
74538;SDS011;66042;51.090;-115.340;2023-08-01T12:14:10;9.30;;;5.80;;
74538;SDS011;66042;51.090;-115.340;2023-08-01T12:16:45;10.40;;;5.80;;
74538;SDS011;66042;51.090;-115.340;2023-08-01T12:19:20;9.60;;;5.90;;
74538;SDS011;66042;51.090;-115.340;2023-08-01T12:21:47;11.00;;;6.40;;
74538;SDS011;66042;51.090;-115.340;2023-08-01T12:24:16;9.70;;;6.30;;
74538;SDS011;66042;51.090;-115.340;2023-08-01T12:26:43;8.80;;;5.60;;
74538;SDS011;66042;51.090;-115.340;2023-08-01T12:29:10;9.20;;;5.20;;
74538;SDS011;66042;51.090;-115.340;2023-08-01T12:31:37;10.00;;;5.40;;
74538;SDS011;66042;51.090;-115.340;2023-08-01T12:34:05;9.30;;;5.60;;
74538;SDS011;66042;51.090;-115.340;2023-08-01T12:36:32;9.10;;;6.10;;
74538;SDS011;66042;51.090;-115.340;2023-08-01T12:38:59;8.00;;;5.60;;
74538;SDS011;66042;51.090;-115.340;2023-08-01T12:41:25;9.50;;;5.60;;
74538;SDS011;66042;51.090;-115.340;2023-08-01T12:43:52;9.70;;;5.60;;
74538;SDS011;66042;51.090;-115.340;2023-08-01T12:46:19;11.50;;;5.70;;
74538;SDS011;66042;51.090;-115.340;2023-08-01T12:48:47;9.00;;;5.60;;
74538;SDS011;66042;51.090;-115.340;2023-08-01T12:51:14;10.20;;;5.50;;
74538;SDS011;66042;51.090;-115.340;2023-08-01T12:53:42;9.00;;;5.30;;
74538;SDS011;66042;51.090;-115.340;2023-08-01T12:56:09;7.80;;;5.30;;
74538;SDS011;66042;51.090;-115.340;2023-08-01T12:58:35;11.20;;;5.20;;
74538;SDS011;66042;51.090;-115.340;2023-08-01T13:01:03;10.20;;;6.20;;
74538;SDS011;66042;51.090;-115.340;2023-08-01T13:03:30;8.50;;;5.50;;
74538;SDS011;66042;51.090;-115.340;2023-08-01T13:05:58;8.40;;;5.30;;
74538;SDS011;66042;51.090;-115.340;2023-08-01T13:08:25;9.90;;;5.40;;
74538;SDS011;66042;51.090;-115.340;2023-08-01T13:10:52;8.00;;;4.90;;
74538;SDS011;66042;51.090;-115.340;2023-08-01T13:13:19;9.40;;;5.10;;
74538;SDS011;66042;51.090;-115.340;2023-08-01T13:15:46;9.00;;;5.30;;
74538;SDS011;66042;51.090;-115.340;2023-08-01T13:18:13;9.10;;;5.50;;
74538;SDS011;66042;51.090;-115.340;2023-08-01T13:20:40;10.00;;;5.80;;
74538;SDS011;66042;51.090;-115.340;2023-08-01T13:23:07;8.60;;;5.20;;
74538;SDS011;66042;51.090;-115.340;2023-08-01T13:25:34;12.50;;;5.90;;
74538;SDS011;66042;51.090;-115.340;2023-08-01T13:28:02;9.10;;;5.60;;
74538;SDS011;66042;51.090;-115.340;2023-08-01T13:30:29;9.70;;;5.40;;
74538;SDS011;66042;51.090;-115.340;2023-08-01T13:32:56;9.60;;;5.40;;
74538;SDS011;66042;51.090;-115.340;2023-08-01T13:35:23;9.20;;;5.50;;
74538;SDS011;66042;51.090;-115.340;2023-08-01T13:37:50;7.60;;;5.30;;
74538;SDS011;66042;51.090;-115.340;2023-08-01T13:40:17;10.20;;;6.30;;
74538;SDS011;66042;51.090;-115.340;2023-08-01T13:42:44;12.10;;;6.00;;
74538;SDS011;66042;51.090;-115.340;2023-08-01T13:45:11;9.90;;;5.90;;
74538;SDS011;66042;51.090;-115.340;2023-08-01T13:47:38;10.30;;;5.80;;
74538;SDS011;66042;51.090;-115.340;2023-08-01T13:50:05;8.60;;;6.00;;
74538;SDS011;66042;51.090;-115.340;2023-08-01T13:52:32;10.10;;;6.50;;
74538;SDS011;66042;51.090;-115.340;2023-08-01T13:54:59;8.30;;;5.30;;
74538;SDS011;66042;51.090;-115.340;2023-08-01T13:57:28;10.10;;;5.40;;
74538;SDS011;66042;51.090;-115.340;2023-08-01T13:59:55;10.20;;;5.80;;
74538;SDS011;66042;51.090;-115.340;2023-08-01T14:02:22;11.10;;;5.80;;
74538;SDS011;66042;51.090;-115.340;2023-08-01T14:04:52;11.90;;;6.20;;
74538;SDS011;66042;51.090;-115.340;2023-08-01T14:07:19;11.00;;;5.80;;
74538;SDS011;66042;51.090;-115.340;2023-08-01T14:09:49;10.00;;;6.10;;
74538;SDS011;66042;51.090;-115.340;2023-08-01T14:12:17;12.40;;;6.10;;